Aérodrome :
LOGIN :

S'inscrire | Disclaimer

   EN    FR    IT 

 










Légende :    VFR   VFR Marginal   IFR   IFR Intensif   IFR Très Intensif
Visi : 
Plafond : 
>= 8 km
>= 3000ft
5 à 8 km
1000 à 3000 ft
1500m à 5 km
500 à 1000 ft
800 à 1500m
200 à 500 ft
< 800m
< 200 ft
Symboles :   Orages  Brouillard  Fortes neiges  Fortes précipitations  Vent > 20 kt
SIGMETs :   Divers  Orages  Givrage  Turbulence  Onde Orograph.  Cendres Volcan.






- Altitude de l'aérodrome : 458 ft


LFSI - St-Dizier

DERNIER METAR :
  • 110300Z AUTO 19005KT 9999 FEW026 BKN072 10/09 Q1007

METARs EXPIRÉS :
  • 110230Z AUTO 19005KT 160V220 9999 BKN038 BKN046 BKN078 11/10 Q1007
  • 110200Z AUTO 18005KT 9999 FEW025 BKN035 BKN041 11/10 Q1007
  • 110130Z AUTO 18007KT 9999 -RADZ FEW028 BKN035 BKN046 11/10 Q1008
  • 110100Z AUTO 18007KT 9999 FEW035/// BKN044/// BKN054/// ///TCU 11/10 Q1008
  • 110030Z AUTO 19007KT 9999 -RA FEW015/// SCT022/// BKN045/// ///TCU 11/10 Q1008

TAF TAF LFSI
Valide du 11 à 03h jusqu'au 12 à 03h UTC


110200Z 1103/1203 18007KT 9999 OVC035
TEMPO 1103/1118 4000 -RA BKN010



MET'MAP, la Météo Aéronautique d'un coup d'oeil ! - Copyright ORBIFLY Décembre 2007 - Disclaimer

ORBIFLY MET'MAP TEAM :

Programmation & Développement : Alexandra Zaïnal
Sur une idée originale de : Baudouin d'Aumeries
Assistance à la programmation : Marc-Olivier Méhu
Soutien technique & logistique : Manuel Goepfert

Contact : metmap@orbifly.com




SOURCES & CREDITS :

   NOAA